TimeMDT,TemperatureF,Dew PointF,Humidity,Sea Level PressureIn,VisibilityMPH,Wind Direction,Wind SpeedMPH,Gust SpeedMPH,PrecipitationIn,Events,Conditions,WindDirDegrees,DateUTC
12:53 AM,42.1,35.1,76,29.81,10.0,ESE,5.8,-,N/A,,Clear,120,2013-04-29 06:53:00
1:53 AM,33.1,28.9,85,29.81,10.0,Calm,Calm,-,N/A,,Clear,0,2013-04-29 07:53:00
2:53 AM,36.0,32.0,86,29.77,10.0,WSW,9.2,-,N/A,,Clear,240,2013-04-29 08:53:00
3:53 AM,34.0,30.0,85,29.75,10.0,West,6.9,-,N/A,,Clear,280,2013-04-29 09:53:00
4:53 AM,37.9,30.9,76,29.70,10.0,SSW,5.8,-,N/A,,Clear,200,2013-04-29 10:53:00
5:53 AM,39.9,30.0,68,29.71,10.0,SW,10.4,-,N/A,,Clear,220,2013-04-29 11:53:00
6:53 AM,45.0,28.0,52,29.69,10.0,SW,16.1,-,N/A,,Clear,220,2013-04-29 12:53:00
7:53 AM,48.0,23.0,37,29.70,10.0,SW,23.0,29.9,N/A,,Clear,220,2013-04-29 13:53:00
8:53 AM,53.1,21.9,30,29.67,10.0,SSW,20.7,-,N/A,,Clear,210,2013-04-29 14:53:00
9:53 AM,57.9,21.0,24,29.62,10.0,SSW,23.0,31.1,N/A,,Clear,210,2013-04-29 15:53:00
10:53 AM,61.0,18.0,19,29.61,10.0,WSW,19.6,31.1,N/A,,Clear,240,2013-04-29 16:53:00
11:53 AM,66.0,21.0,18,29.58,10.0,WSW,28.8,34.5,N/A,,Clear,240,2013-04-29 17:53:00
12:53 PM,69.1,21.0,16,29.52,10.0,SW,28.8,35.7,N/A,,Clear,230,2013-04-29 18:53:00
1:53 PM,66.9,19.9,17,29.52,10.0,WSW,38.0,48.3,N/A,,Clear,240,2013-04-29 19:53:00
2:53 PM,69.1,21.9,17,29.48,9.0,SW,34.5,48.3,N/A,,Clear,230,2013-04-29 20:53:00
3:53 PM,66.9,21.9,18,29.48,10.0,WSW,32.2,43.7,N/A,,Clear,240,2013-04-29 21:53:00
4:53 PM,66.9,21.9,18,29.45,10.0,WSW,29.9,44.9,N/A,,Mostly Cloudy,250,2013-04-29 22:53:00
5:53 PM,66.9,21.9,18,29.45,10.0,West,29.9,43.7,N/A,,Overcast,260,2013-04-29 23:53:00
6:53 PM,64.0,23.0,21,29.44,10.0,West,28.8,43.7,N/A,,Clear,260,2013-04-30 00:53:00
7:53 PM,62.1,24.1,23,29.44,10.0,WSW,33.4,43.7,N/A,,Clear,250,2013-04-30 01:53:00
8:53 PM,57.9,26.1,30,29.47,10.0,West,19.6,29.9,N/A,,Clear,260,2013-04-30 02:53:00
9:53 PM,55.0,27.0,34,29.49,10.0,West,15.0,-,N/A,,Clear,260,2013-04-30 03:53:00
10:41 PM,44.6,33.8,66,29.67,10.0,NNE,19.6,26.5,N/A,,Clear,30,2013-04-30 04:41:00
10:53 PM,42.1,33.1,70,29.57,10.0,NNE,21.9,28.8,N/A,,Clear,20,2013-04-30 04:53:00
11:53 PM,39.0,30.9,73,29.62,10.0,North,16.1,26.5,N/A,,Clear,10,2013-04-30 05:53:00